Time;durP1;ratioP1;P1;durP2;ratioP2;P2;SDS_P1;SDS_P2;PMS_P1;PMS_P2;Temp;Humidity;BMP_temperature;BMP_pressure;BME280_temperature;BME280_humidity;BME280_pressure;Samples;Min_cycle;Max_cycle;Signal;HPM_P1;HPM_P2
2023/03/03 00:02:21;;;;;;;19.25;11.30;;;;;;;5.45;97.72;100921.97;4947000;29;20059;-67
2023/03/03 00:04:49;;;;;;;23.30;11.20;;;;;;;5.38;97.73;100925.63;4955360;29;20043;-67
2023/03/03 00:07:21;;;;;;;21.45;11.55;;;;;;;5.40;98.27;100928.09;4954194;29;20054;-67
2023/03/03 00:09:50;;;;;;;20.73;10.95;;;;;;;5.34;98.00;100923.63;4954704;29;20078;-67
2023/03/03 00:12:24;;;;;;;21.83;11.45;;;;;;;5.22;97.92;100920.91;4953697;29;20050;-67
2023/03/03 00:14:52;;;;;;;17.67;9.93;;;;;;;5.11;97.35;100909.81;4953597;29;20055;-67
2023/03/03 00:17:24;;;;;;;20.20;10.40;;;;;;;5.09;97.54;100914.63;4951233;29;20059;-67
2023/03/03 00:19:52;;;;;;;16.35;9.73;;;;;;;5.10;97.87;100913.56;4951920;29;20058;-67
2023/03/03 00:22:29;;;;;;;16.77;9.82;;;;;;;5.06;98.15;100922.41;4954264;29;20058;-66
2023/03/03 00:25:27;;;;;;;19.67;9.60;;;;;;;5.06;98.89;100911.56;4937930;29;20054;-67
2023/03/03 00:28:00;;;;;;;18.63;10.63;;;;;;;5.04;99.31;100909.09;4954567;29;20055;-67
2023/03/03 00:30:28;;;;;;;21.13;10.10;;;;;;;5.01;100.00;100908.72;4937475;29;20051;-67
2023/03/03 00:32:56;;;;;;;19.00;9.35;;;;;;;5.02;99.51;100915.81;4920023;29;20052;-67
2023/03/03 00:35:37;;;;;;;14.43;9.10;;;;;;;5.07;99.27;100913.22;4918711;29;20375;-67
2023/03/03 00:38:16;;;;;;;16.42;9.73;;;;;;;5.03;99.65;100922.91;4918798;29;20044;-67
2023/03/03 00:40:45;;;;;;;17.27;9.43;;;;;;;5.00;99.23;100902.50;4954428;29;20531;-67
2023/03/03 00:43:22;;;;;;;22.23;10.23;;;;;;;4.90;99.04;100900.38;4923511;29;20043;-67
2023/03/03 00:45:57;;;;;;;16.85;9.20;;;;;;;4.91;98.94;100907.44;4917839;29;20059;-66
2023/03/03 00:48:34;;;;;;;14.85;8.25;;;;;;;4.91;98.74;100904.72;4934249;29;20047;-67
2023/03/03 00:51:27;;;;;;;13.95;8.88;;;;;;;4.91;99.04;100902.00;4934662;29;20094;-67
2023/03/03 00:53:56;;;;;;;14.93;8.38;;;;;;;4.87;99.36;100902.69;4907285;29;20058;-67
2023/03/03 00:56:24;;;;;;;17.27;8.43;;;;;;;4.93;99.27;100885.50;4934941;29;20048;-67
2023/03/03 00:58:53;;;;;;;15.75;8.15;;;;;;;4.96;98.83;100895.88;4917570;29;20068;-67
2023/03/03 01:01:24;;;;;;;15.48;8.77;;;;;;;4.96;98.72;100895.88;4952743;29;20048;-67
2023/03/03 01:03:53;;;;;;;19.33;9.40;;;;;;;4.95;99.14;100902.38;4952820;29;20051;-66
2023/03/03 01:06:21;;;;;;;17.02;9.20;;;;;;;4.94;98.60;100892.59;4953632;29;20055;-67
2023/03/03 01:08:50;;;;;;;16.75;8.38;;;;;;;4.97;98.64;100892.94;4937304;29;20047;-67
2023/03/03 01:11:23;;;;;;;13.98;8.18;;;;;;;4.90;98.57;100886.81;4936800;29;20501;-67
2023/03/03 01:13:52;;;;;;;20.17;9.43;;;;;;;4.82;98.85;100896.09;4953221;29;20379;-67
2023/03/03 01:16:20;;;;;;;15.77;8.85;;;;;;;4.80;99.24;100892.78;4953662;29;20054;-67
2023/03/03 01:18:50;;;;;;;18.02;8.88;;;;;;;4.83;99.38;100896.91;4936251;29;20046;-67
2023/03/03 01:21:18;;;;;;;15.85;8.65;;;;;;;4.90;99.48;100891.41;4952868;29;20043;-66
2023/03/03 01:23:46;;;;;;;15.75;8.70;;;;;;;4.92;99.34;100897.41;4953260;29;20490;-67
2023/03/03 01:26:14;;;;;;;16.17;8.73;;;;;;;4.90;99.92;100896.81;4954056;29;20055;-67
2023/03/03 01:28:42;;;;;;;20.55;8.98;;;;;;;4.78;98.67;100881.34;4952991;29;20077;-67
2023/03/03 01:31:11;;;;;;;16.95;7.60;;;;;;;4.80;99.00;100871.09;4952927;29;20062;-67
2023/03/03 01:33:39;;;;;;;20.65;7.97;;;;;;;4.77;98.78;100863.44;4935815;29;20062;-67
2023/03/03 01:36:08;;;;;;;11.68;7.13;;;;;;;4.78;98.55;100861.53;4936089;29;20055;-67
2023/03/03 01:38:36;;;;;;;11.23;7.25;;;;;;;4.88;98.92;100861.78;4936719;29;20431;-67
2023/03/03 01:41:05;;;;;;;12.90;7.75;;;;;;;5.01;98.71;100863.47;4927031;29;20047;-67
2023/03/03 01:43:33;;;;;;;12.90;7.78;;;;;;;5.11;98.20;100861.00;4953134;29;20051;-67
2023/03/03 01:46:01;;;;;;;16.13;7.90;;;;;;;5.04;98.30;100857.53;4952104;29;20058;-66
2023/03/03 01:48:33;;;;;;;16.00;7.97;;;;;;;5.09;98.58;100857.66;4952623;29;20383;-67
2023/03/03 01:51:05;;;;;;;14.90;7.20;;;;;;;5.03;98.27;100857.81;4935534;29;20388;-66
2023/03/03 01:53:43;;;;;;;13.40;7.95;;;;;;;4.91;98.95;100849.66;4953435;29;20062;-67
2023/03/03 01:56:11;;;;;;;19.25;8.00;;;;;;;4.88;99.06;100850.13;4953541;29;20048;-66
2023/03/03 01:58:44;;;;;;;15.95;7.68;;;;;;;4.88;99.28;100852.84;4935763;29;20047;-66
2023/03/03 02:01:19;;;;;;;14.52;8.10;;;;;;;4.87;99.94;100848.47;4952681;29;20047;-67
2023/03/03 02:03:48;;;;;;;10.80;6.57;;;;;;;4.79;99.13;100847.75;4936110;29;20050;-67
2023/03/03 02:06:21;;;;;;;13.73;7.43;;;;;;;4.76;99.46;100840.09;4954646;28;20043;-67
2023/03/03 02:09:01;;;;;;;13.80;7.00;;;;;;;4.70;99.63;100843.75;4939176;29;20046;-67
2023/03/03 02:11:31;;;;;;;15.20;7.68;;;;;;;4.70;99.50;100835.63;4938815;29;20047;-67
2023/03/03 02:13:59;;;;;;;12.55;7.57;;;;;;;4.65;99.46;100830.06;4920046;29;20052;-67
2023/03/03 02:16:27;;;;;;;12.93;7.65;;;;;;;4.60;99.54;100824.53;4938205;29;20051;-67
2023/03/03 02:18:55;;;;;;;12.30;7.15;;;;;;;4.60;99.51;100824.53;4952688;29;20107;-67
2023/03/03 02:21:27;;;;;;;13.68;7.95;;;;;;;4.68;99.97;100824.16;4956851;29;20123;-67
2023/03/03 02:24:29;;;;;;;12.55;7.05;;;;;;;4.76;99.88;100823.00;4938664;29;20066;-67
2023/03/03 02:26:57;;;;;;;15.30;6.43;;;;;;;4.82;99.47;100820.19;4955598;29;20047;-67
2023/03/03 02:29:26;;;;;;;12.98;7.03;;;;;;;4.69;99.07;100820.38;4939880;29;20066;-67
2023/03/03 02:31:54;;;;;;;12.07;6.60;;;;;;;4.65;99.65;100813.81;4938328;29;20522;-67
2023/03/03 02:34:23;;;;;;;11.27;6.78;;;;;;;4.62;99.58;100812.38;4955437;29;20090;-67
2023/03/03 02:36:51;;;;;;;16.65;7.95;;;;;;;4.66;99.81;100815.44;4953742;29;20063;-67
2023/03/03 02:39:28;;;;;;;10.90;7.07;;;;;;;4.78;99.72;100810.84;4954913;29;20140;-67
2023/03/03 02:41:56;;;;;;;15.30;7.85;;;;;;;4.86;99.55;100814.28;4955281;29;20066;-67
2023/03/03 02:44:32;;;;;;;11.27;6.78;;;;;;;4.83;99.24;100810.13;4939096;29;20059;-67
2023/03/03 02:47:00;;;;;;;13.68;6.85;;;;;;;4.82;99.39;100801.19;4939028;29;20055;-67
2023/03/03 02:49:31;;;;;;;12.55;7.18;;;;;;;4.79;99.33;100808.97;4955809;29;20043;-67
2023/03/03 02:52:01;;;;;;;12.20;7.22;;;;;;;4.71;99.27;100807.44;4935894;29;20059;-67
2023/03/03 02:54:30;;;;;;;9.90;6.53;;;;;;;4.60;99.46;100809.09;4932269;29;20047;-67
2023/03/03 02:57:00;;;;;;;11.23;6.45;;;;;;;4.57;100.00;100798.69;4938897;29;20058;-67
2023/03/03 02:59:28;;;;;;;9.88;6.55;;;;;;;4.52;100.00;100795.88;4930981;29;20402;-67
2023/03/03 03:01:59;;;;;;;15.15;6.35;;;;;;;4.56;100.00;100789.72;4938664;29;20051;-67
2023/03/03 03:04:27;;;;;;;16.58;6.97;;;;;;;4.67;100.00;100793.53;4937091;29;20062;-67
2023/03/03 03:06:56;;;;;;;14.63;8.00;;;;;;;4.66;100.00;100796.47;4956120;29;20067;-67
2023/03/03 03:09:27;;;;;;;14.02;6.80;;;;;;;4.56;100.00;100784.31;4938732;29;20051;-66
2023/03/03 03:11:55;;;;;;;11.77;6.40;;;;;;;4.53;100.00;100787.50;4937839;29;20063;-67
2023/03/03 03:14:25;;;;;;;11.02;7.40;;;;;;;4.48;100.00;100781.97;4937811;29;20076;-67
2023/03/03 03:16:54;;;;;;;12.48;6.82;;;;;;;4.50;100.00;100779.03;4937623;29;20062;-67
2023/03/03 03:19:23;;;;;;;12.43;7.55;;;;;;;4.52;100.00;100783.16;4942514;29;20414;-67
2023/03/03 03:21:51;;;;;;;12.68;7.82;;;;;;;4.60;100.00;100778.44;4920004;29;20048;-67
2023/03/03 03:24:20;;;;;;;13.75;7.70;;;;;;;4.61;100.00;100774.66;4950002;29;20039;-67
2023/03/03 03:26:54;;;;;;;13.98;6.88;;;;;;;4.59;100.00;100765.94;4937810;29;20058;-67
2023/03/03 03:29:22;;;;;;;15.13;7.20;;;;;;;4.54;100.00;100774.75;4938359;29;20051;-67
2023/03/03 03:31:50;;;;;;;14.48;7.50;;;;;;;4.50;100.00;100766.28;4937889;29;20053;-67
2023/03/03 03:34:18;;;;;;;16.02;7.72;;;;;;;4.47;100.00;100768.63;4937892;29;20054;-67
2023/03/03 03:36:47;;;;;;;14.00;8.10;;;;;;;4.48;100.00;100773.00;4938814;29;20059;-67
2023/03/03 03:39:16;;;;;;;13.00;7.43;;;;;;;4.39;100.00;100767.94;4938793;29;20047;-67
2023/03/03 03:41:47;;;;;;;14.13;7.55;;;;;;;4.37;100.00;100772.75;4938161;29;20055;-67
2023/03/03 03:44:15;;;;;;;12.75;7.30;;;;;;;4.29;100.00;100773.94;4937200;29;20704;-67
2023/03/03 03:46:43;;;;;;;14.50;7.72;;;;;;;4.28;100.00;100777.69;4936274;29;20051;-67
2023/03/03 03:49:11;;;;;;;16.83;7.88;;;;;;;4.26;100.00;100774.38;4937243;29;20066;-67
2023/03/03 03:51:40;;;;;;;15.18;7.10;;;;;;;4.27;100.00;100764.38;4937195;29;20047;-67
2023/03/03 03:54:12;;;;;;;12.60;8.05;;;;;;;4.28;100.00;100768.72;4927484;29;20098;-67
2023/03/03 03:56:41;;;;;;;15.80;7.65;;;;;;;4.27;100.00;100770.63;4918594;29;20059;-67
2023/03/03 03:59:09;;;;;;;16.52;8.18;;;;;;;4.24;100.00;100768.38;4918261;29;20052;-66
2023/03/03 04:01:38;;;;;;;17.23;7.72;;;;;;;4.25;100.00;100766.50;4918890;29;20051;-67
2023/03/03 04:04:06;;;;;;;17.25;7.80;;;;;;;4.25;100.00;100770.03;4911769;29;20043;-67
2023/03/03 04:06:34;;;;;;;13.93;7.53;;;;;;;4.25;100.00;100763.78;4937403;29;20062;-66
2023/03/03 04:09:05;;;;;;;16.13;8.15;;;;;;;4.25;100.00;100761.09;4936394;29;20494;-67
2023/03/03 04:11:33;;;;;;;14.27;8.15;;;;;;;4.22;100.00;100767.78;4936500;29;20047;-67
2023/03/03 04:14:03;;;;;;;16.05;8.57;;;;;;;4.21;100.00;100766.13;4953783;29;20058;-67
2023/03/03 04:16:31;;;;;;;14.60;7.63;;;;;;;4.19;100.00;100762.81;4922107;29;20414;-67
2023/03/03 04:18:59;;;;;;;13.43;8.00;;;;;;;4.21;100.00;100762.59;4954457;29;20059;-67
2023/03/03 04:21:32;;;;;;;17.00;8.13;;;;;;;4.19;100.00;100765.53;4937101;29;20390;-67
2023/03/03 04:24:03;;;;;;;15.77;8.88;;;;;;;4.19;100.00;100762.81;4937387;29;20521;-67
2023/03/03 04:26:31;;;;;;;13.85;8.15;;;;;;;4.14;100.00;100765.41;4954610;29;20043;-67
2023/03/03 04:29:01;;;;;;;16.92;7.90;;;;;;;4.13;100.00;100758.34;4937311;29;20043;-67
2023/03/03 04:31:30;;;;;;;17.08;8.43;;;;;;;4.17;100.00;100759.53;4954864;29;20055;-67
2023/03/03 04:33:58;;;;;;;15.55;8.52;;;;;;;4.20;100.00;100758.25;4928644;29;20040;-67
2023/03/03 04:36:27;;;;;;;13.38;7.65;;;;;;;4.24;100.00;100760.25;4918714;29;20054;-67
2023/03/03 04:38:55;;;;;;;18.58;8.63;;;;;;;4.35;100.00;100760.50;4918484;29;20043;-67
2023/03/03 04:41:23;;;;;;;16.05;8.88;;;;;;;4.41;100.00;100754.97;4934787;29;20075;-67
2023/03/03 04:43:52;;;;;;;14.48;8.45;;;;;;;4.44;100.00;100756.38;4918590;29;20044;-67
2023/03/03 04:46:20;;;;;;;16.33;7.97;;;;;;;4.51;100.00;100761.69;4934380;29;20056;-66
2023/03/03 04:48:48;;;;;;;14.60;8.75;;;;;;;4.45;100.00;100755.31;4917586;29;20058;-67
2023/03/03 04:51:17;;;;;;;18.15;8.35;;;;;;;4.41;100.00;100765.00;4917037;29;20502;-67
2023/03/03 04:53:46;;;;;;;14.38;7.88;;;;;;;4.38;100.00;100757.31;4937004;29;20065;-67
2023/03/03 04:56:14;;;;;;;12.27;7.95;;;;;;;4.34;100.00;100754.25;4953914;29;20051;-67
2023/03/03 04:58:42;;;;;;;15.50;9.10;;;;;;;4.34;100.00;100750.72;4936965;29;20778;-67
2023/03/03 05:01:14;;;;;;;14.95;8.55;;;;;;;4.35;100.00;100749.66;4937258;29;20051;-67
2023/03/03 05:03:42;;;;;;;17.10;8.18;;;;;;;4.26;100.00;100743.75;4936534;29;20047;-67
2023/03/03 05:06:11;;;;;;;14.18;8.25;;;;;;;4.24;100.00;100748.56;4936453;29;20043;-67
2023/03/03 05:08:41;;;;;;;14.30;8.00;;;;;;;4.22;100.00;100753.41;4952614;29;20047;-67
2023/03/03 05:11:10;;;;;;;15.68;7.80;;;;;;;4.29;100.00;100757.66;4952504;29;20054;-67
2023/03/03 05:13:38;;;;;;;16.05;8.35;;;;;;;4.37;100.00;100750.25;4947662;29;20050;-67
2023/03/03 05:16:07;;;;;;;19.88;8.40;;;;;;;4.38;100.00;100744.59;4934706;29;20052;-66
2023/03/03 05:18:35;;;;;;;15.13;8.52;;;;;;;4.33;100.00;100752.59;4934326;29;20063;-67
2023/03/03 05:21:03;;;;;;;12.07;7.93;;;;;;;4.22;100.00;100748.81;4934393;29;20510;-67
2023/03/03 05:23:31;;;;;;;14.73;8.60;;;;;;;4.26;100.00;100744.56;4934307;29;20056;-67
2023/03/03 05:25:59;;;;;;;15.93;9.02;;;;;;;4.30;100.00;100744.94;4934152;29;20059;-66
2023/03/03 05:28:27;;;;;;;14.85;8.15;;;;;;;4.46;100.00;100748.84;4934168;29;20044;-67
2023/03/03 05:30:54;;;;;;;14.90;8.25;;;;;;;4.48;100.00;100760.28;4934483;28;20048;-65
2023/03/03 05:33:22;;;;;;;14.82;8.23;;;;;;;4.41;100.00;100763.09;4926530;28;20055;-67
2023/03/03 05:35:55;;;;;;;17.83;7.78;;;;;;;4.32;100.00;100756.38;4972667;28;20046;-66
2023/03/03 05:38:24;;;;;;;14.60;8.25;;;;;;;4.21;100.00;100762.59;4928236;29;20054;-67
2023/03/03 05:40:53;;;;;;;18.00;8.43;;;;;;;4.21;100.00;100759.88;4935218;29;20063;-66
2023/03/03 05:43:21;;;;;;;23.17;11.02;;;;;;;4.19;100.00;100762.00;4938760;28;20052;-66
2023/03/03 05:45:57;;;;;;;21.75;12.25;;;;;;;4.16;100.00;100755.97;4963998;28;20489;-66
2023/03/03 05:48:24;;;;;;;21.73;12.10;;;;;;;4.18;100.00;100761.19;4943184;28;20048;-67
2023/03/03 05:50:52;;;;;;;24.85;12.35;;;;;;;4.23;100.00;100764.03;4937906;29;20060;-67
2023/03/03 05:53:20;;;;;;;20.38;9.50;;;;;;;4.22;100.00;100773.22;4937788;29;20507;-65
2023/03/03 05:55:48;;;;;;;16.58;9.35;;;;;;;4.27;100.00;100769.78;4937421;29;20546;-67
2023/03/03 05:58:16;;;;;;;16.58;9.15;;;;;;;4.38;100.00;100776.28;4935274;29;20055;-67
2023/03/03 06:00:46;;;;;;;15.43;9.30;;;;;;;4.53;100.00;100773.94;4935170;29;20063;-66
2023/03/03 06:03:15;;;;;;;16.10;9.43;;;;;;;4.72;100.00;100784.69;4921300;29;20058;-66
2023/03/03 06:05:43;;;;;;;16.48;8.63;;;;;;;4.80;100.00;100776.19;4948573;29;20066;-65
2023/03/03 06:08:11;;;;;;;16.40;9.27;;;;;;;5.01;100.00;100779.38;4948452;28;20066;-67
2023/03/03 06:10:39;;;;;;;19.98;9.05;;;;;;;5.11;100.00;100785.03;4958104;28;20062;-66
2023/03/03 06:13:09;;;;;;;20.20;9.20;;;;;;;5.24;100.00;100786.63;4926056;28;21234;-66
2023/03/03 06:15:37;;;;;;;18.48;8.82;;;;;;;5.18;100.00;100790.31;4956078;28;20080;-66
2023/03/03 06:18:05;;;;;;;15.00;8.27;;;;;;;5.38;99.26;100789.09;4975045;28;20042;-67
2023/03/03 06:20:34;;;;;;;16.30;7.90;;;;;;;5.55;98.11;100793.75;4955790;28;20055;-65
2023/03/03 06:23:02;;;;;;;18.38;9.23;;;;;;;5.73;97.41;100795.47;4954936;29;20055;-66
2023/03/03 06:25:30;;;;;;;15.52;8.43;;;;;;;5.87;95.82;100793.31;4954928;29;20378;-66
2023/03/03 06:27:59;;;;;;;14.10;7.95;;;;;;;5.90;95.18;100796.34;4956079;29;20055;-67
2023/03/03 06:30:29;;;;;;;13.70;8.45;;;;;;;6.00;94.52;100800.31;4956936;29;20046;-66
2023/03/03 06:32:57;;;;;;;14.23;8.63;;;;;;;5.87;95.48;100796.81;4968482;28;20421;-66
2023/03/03 06:35:25;;;;;;;15.90;8.85;;;;;;;5.86;95.51;100803.34;4955802;28;20051;-66
2023/03/03 06:37:53;;;;;;;20.13;10.30;;;;;;;6.26;93.74;100804.34;4946529;29;20048;-67
2023/03/03 06:40:22;;;;;;;16.25;8.75;;;;;;;6.45;93.42;100801.38;4953062;28;20055;-67
2023/03/03 06:42:50;;;;;;;18.25;9.25;;;;;;;6.55;93.06;100800.75;4955620;29;20043;-67
2023/03/03 06:45:18;;;;;;;18.50;9.10;;;;;;;6.67;92.62;100798.78;4954942;29;20059;-67
2023/03/03 06:47:46;;;;;;;16.58;9.38;;;;;;;6.88;92.29;100803.69;4954666;29;20074;-66
2023/03/03 06:50:19;;;;;;;18.25;9.57;;;;;;;6.84;92.68;100804.19;4954648;29;20047;-67
2023/03/03 06:52:47;;;;;;;16.53;9.47;;;;;;;7.05;91.53;100815.38;4954895;28;20058;-67
2023/03/03 06:55:22;;;;;;;15.85;8.85;;;;;;;7.13;91.19;100808.66;4955561;29;20062;-68
2023/03/03 06:57:49;;;;;;;15.68;8.32;;;;;;;7.14;91.58;100804.88;4956108;29;20413;-67
2023/03/03 07:00:25;;;;;;;20.50;9.90;;;;;;;7.60;89.58;100814.72;4955291;29;20060;-67
2023/03/03 07:02:58;;;;;;;17.15;8.98;;;;;;;7.72;87.67;100817.31;4939001;29;20059;-67
2023/03/03 07:05:28;;;;;;;18.27;10.00;;;;;;;7.92;86.93;100816.72;4955375;29;20063;-68
2023/03/03 07:07:56;;;;;;;16.88;9.15;;;;;;;7.96;86.07;100820.56;4955324;29;20058;-67
2023/03/03 07:10:28;;;;;;;16.00;8.32;;;;;;;8.15;85.30;100825.66;4954411;29;20066;-67
2023/03/03 07:13:13;;;;;;;13.98;7.75;;;;;;;8.34;85.42;100824.22;4953994;29;20081;-67
2023/03/03 07:15:42;;;;;;;16.23;8.27;;;;;;;8.58;84.80;100817.63;4954806;29;20055;-67
2023/03/03 07:18:32;;;;;;;15.65;8.70;;;;;;;8.60;83.00;100815.44;4954773;29;20059;-67
2023/03/03 07:21:18;;;;;;;12.18;8.15;;;;;;;8.85;81.57;100822.19;4954645;29;20058;-67
2023/03/03 07:23:49;;;;;;;14.23;8.43;;;;;;;8.92;82.60;100819.22;4938855;29;20047;-67
2023/03/03 07:26:27;;;;;;;19.88;8.77;;;;;;;9.04;81.84;100824.50;4955126;29;20059;-67
2023/03/03 07:29:13;;;;;;;16.27;8.15;;;;;;;8.85;83.44;100824.91;4955102;29;20055;-68
2023/03/03 07:31:45;;;;;;;12.40;7.38;;;;;;;8.73;82.05;100831.38;4955850;29;20042;-67
2023/03/03 07:34:20;;;;;;;15.60;7.35;;;;;;;9.09;79.41;100830.00;4955108;29;20055;-67
2023/03/03 07:36:54;;;;;;;16.08;7.38;;;;;;;9.35;77.01;100830.13;4955809;29;20051;-67
2023/03/03 07:39:29;;;;;;;12.52;5.95;;;;;;;9.48;76.59;100826.09;4955605;29;20502;-67
2023/03/03 07:42:36;;;;;;;18.40;7.75;;;;;;;10.10;74.93;100826.28;4955529;29;20047;-67
2023/03/03 07:45:34;;;;;;;12.05;5.22;;;;;;;10.52;71.42;100835.41;4953958;29;20062;-67
2023/03/03 07:48:22;;;;;;;8.13;4.50;;;;;;;10.15;70.23;100833.66;4937424;29;20055;-67
2023/03/03 07:50:51;;;;;;;8.77;4.80;;;;;;;10.27;70.04;100844.34;4954670;29;20066;-67
2023/03/03 07:53:33;;;;;;;9.50;5.30;;;;;;;10.33;69.38;100849.56;4954646;29;20059;-68
2023/03/03 07:56:02;;;;;;;9.77;3.95;;;;;;;10.16;70.04;100844.34;4954549;29;20058;-68
2023/03/03 07:58:37;;;;;;;7.22;4.18;;;;;;;10.66;68.18;100840.31;4954316;29;20414;-67
2023/03/03 08:01:39;;;;;;;8.63;4.22;;;;;;;10.95;68.02;100837.00;4954645;29;20043;-67
2023/03/03 08:04:19;;;;;;;9.57;4.90;;;;;;;11.33;67.08;100842.13;4953343;28;20067;-67
2023/03/03 08:06:57;;;;;;;6.90;5.10;;;;;;;11.40;66.19;100848.13;4953915;29;20050;-67
2023/03/03 08:09:43;;;;;;;9.15;4.55;;;;;;;11.00;66.64;100848.75;4953842;29;20051;-68
2023/03/03 08:12:26;;;;;;;8.60;5.38;;;;;;;11.75;65.79;100861.97;4952032;29;20054;-66
2023/03/03 08:14:57;;;;;;;10.82;5.82;;;;;;;12.25;64.86;100856.53;4951951;28;20066;-67
2023/03/03 08:17:38;;;;;;;17.10;5.88;;;;;;;12.20;65.08;100862.03;4953238;29;20430;-68
2023/03/03 08:20:33;;;;;;;13.77;5.90;;;;;;;11.74;64.34;100857.59;4952712;29;20050;-67
2023/03/03 08:23:01;;;;;;;15.43;6.40;;;;;;;11.91;67.16;100858.06;4953529;28;20144;-67
2023/03/03 08:25:29;;;;;;;14.27;6.47;;;;;;;12.13;64.55;100856.06;4953233;29;20058;-68
2023/03/03 08:27:57;;;;;;;12.98;6.70;;;;;;;11.81;67.07;100860.84;4953302;29;20054;-67
2023/03/03 08:30:25;;;;;;;13.77;7.30;;;;;;;11.98;67.42;100862.41;4953913;29;20077;-68
2023/03/03 08:32:52;;;;;;;13.15;8.00;;;;;;;11.86;66.37;100857.25;4953292;29;20085;-67
2023/03/03 08:35:20;;;;;;;12.88;7.57;;;;;;;12.39;64.98;100855.88;4954549;29;20379;-68
2023/03/03 08:37:48;;;;;;;14.93;7.72;;;;;;;12.42;66.31;100864.34;4954078;29;20047;-67
2023/03/03 08:40:16;;;;;;;19.38;9.10;;;;;;;12.21;65.86;100858.19;4954471;29;20035;-67
2023/03/03 08:42:44;;;;;;;12.85;7.60;;;;;;;12.03;66.90;100854.16;4954521;29;20505;-67
2023/03/03 08:45:12;;;;;;;13.55;8.23;;;;;;;12.13;66.68;100858.81;4953185;29;20525;-68
2023/03/03 08:47:41;;;;;;;15.95;8.57;;;;;;;12.34;66.60;100860.31;4953630;29;20051;-68
2023/03/03 08:50:10;;;;;;;13.60;7.80;;;;;;;12.22;67.75;100857.91;4953849;29;20051;-67
2023/03/03 08:52:38;;;;;;;19.00;8.93;;;;;;;12.28;66.66;100858.72;4953751;29;20058;-68
2023/03/03 08:55:07;;;;;;;16.60;8.40;;;;;;;12.62;64.52;100866.13;4953901;29;20135;-68
2023/03/03 08:57:35;;;;;;;14.63;8.45;;;;;;;13.14;61.91;100870.34;4953121;29;20055;-68
2023/03/03 09:00:04;;;;;;;17.52;8.98;;;;;;;12.95;64.96;100862.84;4953283;29;20376;-68
2023/03/03 09:02:32;;;;;;;14.52;8.60;;;;;;;12.86;64.58;100862.63;4935251;29;20054;-67
2023/03/03 09:05:00;;;;;;;11.88;8.18;;;;;;;13.30;62.71;100854.53;4952195;29;20063;-67
2023/03/03 09:07:27;;;;;;;19.45;9.38;;;;;;;13.30;61.78;100862.78;4952569;29;20183;-68
2023/03/03 09:09:55;;;;;;;15.43;7.90;;;;;;;13.22;61.57;100861.50;4952209;29;20058;-68
2023/03/03 09:12:47;;;;;;;15.90;8.57;;;;;;;13.14;63.60;100862.09;4953131;29;20056;-67
2023/03/03 09:15:22;;;;;;;16.70;8.15;;;;;;;13.46;62.77;100868.97;4953239;29;20055;-68
2023/03/03 09:17:50;;;;;;;16.98;9.13;;;;;;;13.78;63.23;100867.47;4952335;29;20043;-67
2023/03/03 09:20:24;;;;;;;14.82;8.90;;;;;;;13.79;60.30;100857.28;4952294;29;20490;-68
2023/03/03 09:22:52;;;;;;;15.10;9.88;;;;;;;13.90;61.07;100868.97;4952180;29;20066;-68
2023/03/03 09:25:36;;;;;;;12.23;8.15;;;;;;;14.34;59.76;100866.97;4952459;29;20059;-68
2023/03/03 09:28:21;;;;;;;11.02;7.20;;;;;;;14.60;58.60;100877.59;4952571;29;20490;-68
2023/03/03 09:30:51;;;;;;;18.08;8.48;;;;;;;14.57;57.60;100870.75;4952531;29;20051;-68
2023/03/03 09:33:23;;;;;;;15.35;8.43;;;;;;;14.86;57.81;100871.69;4952785;29;20122;-68
2023/03/03 09:35:57;;;;;;;13.00;8.25;;;;;;;14.88;55.91;100863.94;4953824;29;20075;-68
2023/03/03 09:38:30;;;;;;;12.68;8.05;;;;;;;15.06;56.78;100870.53;4953150;29;20055;-68
2023/03/03 09:41:17;;;;;;;15.05;8.13;;;;;;;14.16;58.63;100854.84;4953623;29;20051;-67
2023/03/03 09:44:20;;;;;;;15.18;8.35;;;;;;;14.04;56.98;100869.91;4953891;29;20044;-68
2023/03/03 09:46:56;;;;;;;12.77;7.38;;;;;;;13.96;58.45;100863.13;4900642;29;20490;-67
2023/03/03 09:49:34;;;;;;;13.57;7.28;;;;;;;13.98;59.83;100860.03;4952871;29;20051;-68
2023/03/03 09:52:17;;;;;;;9.43;6.93;;;;;;;14.07;58.70;100865.69;4952920;29;20063;-68
2023/03/03 09:55:01;;;;;;;11.35;6.90;;;;;;;14.12;58.87;100868.38;4952365;29;20066;-66
2023/03/03 09:57:37;;;;;;;10.93;6.85;;;;;;;14.61;54.98;100862.69;4952442;29;20055;-68
2023/03/03 10:00:15;;;;;;;12.00;7.22;;;;;;;14.89;54.66;100871.09;4952309;29;20062;-68
2023/03/03 10:03:15;;;;;;;11.48;7.70;;;;;;;14.17;58.85;100857.31;4953054;29;20051;-68
2023/03/03 10:05:49;;;;;;;15.00;7.63;;;;;;;13.96;58.25;100865.03;4921375;29;20047;-67
2023/03/03 10:08:29;;;;;;;11.05;7.18;;;;;;;13.74;59.62;100877.41;4953623;29;20039;-68
2023/03/03 10:11:00;;;;;;;15.57;7.82;;;;;;;14.28;57.79;100877.25;4952545;29;20054;-67
2023/03/03 10:13:31;;;;;;;12.40;7.40;;;;;;;14.45;58.71;100878.66;4953261;29;20055;-68
2023/03/03 10:16:05;;;;;;;11.50;6.97;;;;;;;14.81;56.29;100880.06;4935725;29;20058;-68
2023/03/03 10:18:56;;;;;;;13.45;7.60;;;;;;;14.38;56.29;100870.78;4935365;29;20391;-67
2023/03/03 10:21:36;;;;;;;12.02;7.53;;;;;;;15.20;55.00;100869.72;4951794;29;20063;-67
2023/03/03 10:24:38;;;;;;;14.98;7.68;;;;;;;15.43;53.98;100876.16;4953079;29;20063;-69
2023/03/03 10:27:35;;;;;;;13.68;7.32;;;;;;;15.67;53.33;100875.16;4954240;28;20495;-68
2023/03/03 10:30:31;;;;;;;12.05;7.28;;;;;;;15.76;52.83;100884.34;4956875;29;20456;-68
2023/03/03 10:34:03;;;;;;;13.95;8.07;;;;;;;14.93;53.83;100883.16;4956003;29;20051;-68
2023/03/03 10:36:51;;;;;;;11.13;7.38;;;;;;;15.40;53.69;100876.78;4905713;29;20820;-68
2023/03/03 10:39:47;;;;;;;11.75;8.00;;;;;;;15.87;54.34;100882.19;4955998;29;20066;-68
2023/03/03 10:42:26;;;;;;;13.90;8.07;;;;;;;15.12;55.32;100874.81;4955395;29;20406;-68
2023/03/03 10:45:18;;;;;;;12.93;6.90;;;;;;;15.03;53.57;100880.22;4955852;29;20043;-68
2023/03/03 10:48:23;;;;;;;12.60;8.27;;;;;;;15.67;52.13;100877.91;4954756;29;20063;-68
2023/03/03 10:51:12;;;;;;;13.15;7.78;;;;;;;15.14;55.70;100880.84;4955775;29;20055;-68
2023/03/03 10:54:10;;;;;;;15.13;8.52;;;;;;;15.24;54.42;100874.31;4956569;29;20043;-68
2023/03/03 10:56:47;;;;;;;11.85;7.47;;;;;;;15.19;54.68;100885.44;4956424;29;20482;-68
2023/03/03 10:59:31;;;;;;;12.63;8.35;;;;;;;15.55;53.83;100884.75;4956346;29;20051;-68
2023/03/03 11:02:36;;;;;;;13.38;7.80;;;;;;;15.67;52.26;100883.41;4956232;29;20475;-68
2023/03/03 11:05:32;;;;;;;13.90;7.75;;;;;;;15.22;54.31;100879.31;4955552;29;20490;-68
2023/03/03 11:08:14;;;;;;;15.65;8.48;;;;;;;15.07;56.67;100876.84;4955601;29;20058;-68
2023/03/03 11:10:57;;;;;;;14.65;7.70;;;;;;;15.51;56.48;100869.97;4955441;29;20502;-68
2023/03/03 11:13:47;;;;;;;12.07;8.20;;;;;;;15.16;55.82;100873.06;4956177;29;20082;-68
2023/03/03 11:16:28;;;;;;;17.85;8.50;;;;;;;15.47;55.36;100879.13;4956078;29;20055;-68
2023/03/03 11:19:34;;;;;;;13.52;8.25;;;;;;;15.66;55.19;100873.50;4955434;29;20055;-67
2023/03/03 11:22:22;;;;;;;16.00;8.35;;;;;;;15.56;54.53;100872.59;4858745;29;20053;-68
2023/03/03 11:25:13;;;;;;;16.17;7.95;;;;;;;15.48;55.13;100878.03;4859170;29;20054;-69
2023/03/03 11:28:07;;;;;;;13.48;8.05;;;;;;;15.24;54.04;100871.56;4935449;29;20074;-68
2023/03/03 11:30:55;;;;;;;9.60;7.45;;;;;;;15.66;52.54;100874.34;4955209;29;20055;-69
2023/03/03 11:33:46;;;;;;;13.57;8.20;;;;;;;15.06;53.86;100876.03;4955541;29;20054;-69
2023/03/03 11:36:30;;;;;;;12.27;7.78;;;;;;;15.55;53.15;100867.41;4954996;29;20066;-69
2023/03/03 11:39:04;;;;;;;16.23;7.88;;;;;;;16.19;51.88;100861.06;4954951;28;20047;-69
2023/03/03 11:41:38;;;;;;;15.45;8.13;;;;;;;16.50;49.38;100863.13;4954786;29;20590;-69
2023/03/03 11:44:29;;;;;;;15.95;8.20;;;;;;;16.23;50.40;100861.28;4955689;29;20055;-69
2023/03/03 11:47:09;;;;;;;14.68;8.02;;;;;;;16.03;51.22;100852.31;4954639;29;20055;-69
2023/03/03 11:49:49;;;;;;;12.82;7.07;;;;;;;15.69;51.07;100853.59;4954924;29;20051;-68
2023/03/03 11:52:27;;;;;;;14.25;7.95;;;;;;;16.12;50.53;100850.47;4953719;29;20490;-69